Kezdőlap
METAR-TAF:

METAR-TAF

Repülőterek :

Göteborg City repülőtér

Göteborg, Svédország

földrajzi szélesség: 57-47N, földrajzi hosszúság: 011-53E, magasság: 20 m

Jelenlegi meteorológiai megfigyelések

A jelentés 38 perccel ezelõtt készült, 21:20 UTC
Kelet-délkeleti szél 2 kt
Hőmérséklet 14°C
Páratartalom 88%
Légköri nyomás 1018 hPa
Látótávolság 10 km, vagy több

METAR: ESGP 192120Z AUTO 11002KT 9999 NCD 14/12 Q1018

Idő: 23:58 (21:58 UTC)

Előrejelzés

A jelentés 7 órával és 28 perccel ezelõtt készült, 14:30 UTC
Az előrejelzés 19-én 15 óra UTC és 19-én 17 óra UTC között érvényes
Nyugat-délnyugati szél 10 kt
Látótávolság 10 km, vagy több
felhőtlen 1500 m magasságban, és nincs gomolyfelhõ

TAF: ESGP 191430Z 1915/1917 25010KT CAVOK

Meteorológiai megfigyelések és előrejelzések több, mint 4000 repülőtéren (METAR és TAF jelentéseket).

A térképen piros és sárga pontok jelzik az elérhető meteorológiai állomásokat.

Mozgassa az egeret a pont fölött, hogy megjelenjen az állomás neve.

Azután kattintson az időjárási megfigyelések és előrejelzések megtekintéséhez.

A térkép megváltoztatása: kattintson a fekete keresztel jelölt zöld gombra ráközelítéshez, a vonallal jelölt zöld gombra távolításhoz, vagy a zöld nyilakra a szomszédos térképek eléréséhez.


METAR-TAF: